Detall de PIREP

Printer-friendly versionPDF version

[2013/01/27 10:26:00]
Flight IATA:CT2110
Pilot Number:012
Company ICAO:CAT
Aircraft Type:AT72/F
PAX:56
Departing Airport: LEVC
Destination Airport: LEST
Alternate Airport:LEMD
Online: VATSIM
Route:CENTA A33 PRADO/N0425F350 UN733 FORNO
Flight Level:F210
No Slew and time accel
No pause
Crash detect
Detect pilot in Cockpit between each 30 and 45 minutes
10:26 Zero fuel Weight: 39261 Lbs, Fuel Weight: 5897 Lbs
10:26 VATSIM:LEVC 271000Z 25017KT 9999 FEW030 16/06 Q1017 NOSIG
10:26 VATSIM:LEST 271000Z 30012KT 240V340 3000 RA SCT003 OVC007 10/10 Q1014 TEMPO 1500 RA BKN003
10:26 VOICE CATALONIAN
10:28 Parking Brakes off
10:32 Take-off
10:32 Take off Weight: 45104 Lbs
10:32 Wind: 253º @ 017 Knots Heading: 290º
10:32 POS N39º 29´ 16´´ W000º 28´ 39´´
10:32 Gear Up: 126 Knots
10:32 Flaps:1 at 126 Knots
10:32 Flaps:0 at 146 Knots
10:47 Wind:286º@028 Knots Heading: 297º Ground Speed: 210 Knots Altitude 19202 ft
10:49 TOC
10:49 Fuel Weight: 5296 Lb
11:02 Wind:291º@039 Knots Heading: 297º Ground Speed: 239 Knots Altitude 21184 ft
11:17 Wind:282º@042 Knots Heading: 294º Ground Speed: 238 Knots Altitude 21177 ft
11:32 Wind:275º@052 Knots Heading: 292º Ground Speed: 226 Knots Altitude 21138 ft
11:47 Wind:274º@059 Knots Heading: 299º Ground Speed: 227 Knots Altitude 21099 ft
12:02 Wind:247º@068 Knots Heading: 292º Ground Speed: 229 Knots Altitude 21066 ft
12:06 TOD
12:06 Fuel Weight: 3180 Lb
12:17 Wind:259º@033 Knots Heading: 296º Ground Speed: 219 Knots Altitude 8720 ft
12:21 Flaps:1 at 153 Knots
12:23 Flaps:2 at 146 Knots
12:24 Gear Down: 141 Knots
12:26 TouchDown:Rate -58 ft/min Speed: 105 Knots
12:27 VATSIM:LEST 271200Z 31003KT 7000 -RA SCT004 BKN023 09/09 Q1015 TEMPO 4000 SHRA SCT020TCU
12:27 Land
12:27 Wind:326º@006 Knots
12:27 Heading: 344º
12:27 Flight Duration: 01:55
12:27 Landing Weight: 42172 Lbs
12:27 POS N42º 53´ 49´´ W008º 24´ 56´´
12:28 Parking brakes on
12:28 Block to Block Duration: 02:00
12:28 Final Fuel: 2903 Lbls
12:28 Spent Fuel: 2993 Lbls
12:28 Flight Length: 422 NM
12:28 TOD Land Length: 68 NM

Exportar CSV

Powered by Drupal - Modified by Danger4k